createdAt,value
2019-02-26T00:00:42.306Z,4.30
2019-02-26T00:03:11.758Z,4.10
2019-02-26T00:05:41.913Z,4.10
2019-02-26T00:08:12.071Z,4.00
2019-02-26T00:10:42.239Z,4.10
2019-02-26T00:13:12.380Z,4.10
2019-02-26T00:15:43.247Z,4.20
2019-02-26T00:18:16.157Z,4.10
2019-02-26T00:20:46.284Z,4.20
2019-02-26T00:23:16.466Z,4.20
2019-02-26T00:25:46.603Z,4.10
2019-02-26T00:28:17.597Z,3.90
2019-02-26T00:30:48.613Z,3.80
2019-02-26T00:33:21.519Z,3.80
2019-02-26T00:35:50.643Z,3.70
2019-02-26T00:38:20.835Z,3.70
2019-02-26T00:40:50.977Z,3.70
2019-02-26T00:43:23.683Z,3.70
2019-02-26T00:45:53.456Z,3.80
2019-02-26T00:48:24.832Z,3.90
2019-02-26T00:50:56.624Z,3.90
2019-02-26T00:53:28.460Z,4.10
2019-02-26T00:56:00.994Z,4.10
2019-02-26T00:58:32.087Z,3.90
2019-02-26T01:01:02.391Z,3.80
2019-02-26T01:03:32.575Z,3.80
2019-02-26T01:06:04.133Z,3.80
2019-02-26T01:08:35.805Z,3.70
2019-02-26T01:11:08.271Z,3.70
2019-02-26T01:13:38.296Z,3.60
2019-02-26T01:16:08.543Z,3.60
2019-02-26T01:18:38.719Z,3.60
2019-02-26T01:21:08.865Z,3.70
2019-02-26T01:23:39.010Z,3.70
2019-02-26T01:26:10.078Z,3.70
2019-02-26T01:28:44.115Z,3.70
2019-02-26T01:31:12.903Z,3.70
2019-02-26T01:33:43.079Z,3.60
2019-02-26T01:36:14.006Z,3.60
2019-02-26T01:38:46.266Z,3.60
2019-02-26T01:41:17.959Z,3.60
2019-02-26T01:43:48.795Z,3.70
2019-02-26T01:46:18.980Z,3.70
2019-02-26T01:48:49.107Z,3.90
2019-02-26T01:51:20.014Z,4.20
2019-02-26T01:53:51.910Z,4.30
2019-02-26T01:56:22.959Z,4.50
2019-02-26T01:58:56.621Z,4.60
2019-02-26T02:01:26.172Z,4.80
2019-02-26T02:03:56.480Z,4.90
2019-02-26T02:06:26.617Z,5.00
2019-02-26T02:08:56.788Z,5.10
2019-02-26T02:11:30.608Z,5.30
2019-02-26T02:14:01.856Z,5.40
2019-02-26T02:16:31.457Z,5.40
2019-02-26T02:19:02.451Z,5.50
2019-02-26T02:21:35.502Z,5.60
2019-02-26T02:24:05.756Z,5.70
2019-02-26T02:26:37.242Z,5.80
2019-02-26T02:29:07.379Z,5.90
2019-02-26T02:31:38.240Z,5.90
2019-02-26T02:34:09.350Z,5.80
2019-02-26T02:36:39.538Z,5.70
2019-02-26T02:39:12.891Z,5.60
2019-02-26T02:41:42.109Z,5.60
2019-02-26T02:44:15.379Z,5.70
2019-02-26T02:46:46.668Z,5.60
2019-02-26T02:49:17.967Z,5.60
2019-02-26T02:51:48.246Z,5.50
2019-02-26T02:54:20.892Z,5.60
2019-02-26T02:56:50.300Z,5.60
2019-02-26T02:59:20.433Z,5.50
2019-02-26T03:01:52.699Z,5.40
2019-02-26T03:04:25.175Z,5.20
2019-02-26T03:06:55.566Z,5.00
2019-02-26T03:09:26.118Z,4.80
2019-02-26T03:11:56.282Z,4.70
2019-02-26T03:14:26.411Z,4.70
2019-02-26T03:16:56.583Z,4.50
2019-02-26T03:19:26.728Z,4.40
2019-02-26T03:21:56.900Z,4.50
2019-02-26T03:24:28.886Z,4.60
2019-02-26T03:26:58.961Z,4.70
2019-02-26T03:29:29.987Z,4.80
2019-02-26T03:32:00.127Z,4.90
2019-02-26T03:34:30.312Z,4.90
2019-02-26T03:37:03.005Z,5.00
2019-02-26T03:39:32.303Z,5.20
2019-02-26T03:42:02.451Z,5.40
2019-02-26T03:44:32.582Z,5.50
2019-02-26T03:47:02.756Z,5.40
2019-02-26T03:49:32.887Z,5.20
2019-02-26T03:52:03.061Z,5.00
2019-02-26T03:54:37.277Z,4.90
2019-02-26T03:57:06.064Z,4.70
2019-02-26T03:59:36.220Z,4.70
2019-02-26T04:02:07.280Z,4.50
2019-02-26T04:04:38.226Z,4.50
2019-02-26T04:07:10.627Z,4.40
2019-02-26T04:09:44.096Z,4.30
2019-02-26T04:12:13.552Z,4.30
2019-02-26T04:14:43.975Z,4.30
2019-02-26T04:17:14.121Z,4.30
2019-02-26T04:19:44.673Z,4.10
2019-02-26T04:22:31.819Z,3.90
2019-02-26T04:25:14.856Z,3.70
2019-02-26T04:28:02.713Z,3.60
2019-02-26T04:31:08.341Z,3.60
2019-02-26T04:34:18.404Z,3.70
2019-02-26T04:37:27.260Z,3.60
2019-02-26T04:40:40.969Z,3.50
2019-02-26T04:43:47.875Z,3.40
2019-02-26T04:46:39.595Z,3.80
2019-02-26T04:49:09.831Z,4.00
2019-02-26T04:51:44.501Z,4.10
2019-02-26T04:54:17.585Z,4.30
2019-02-26T04:56:45.122Z,4.40
2019-02-26T04:59:16.945Z,4.40
2019-02-26T05:01:49.891Z,4.40
2019-02-26T05:04:19.340Z,4.30
2019-02-26T05:06:49.492Z,4.20
2019-02-26T05:09:19.659Z,4.00
2019-02-26T05:11:49.800Z,3.80
2019-02-26T05:14:23.462Z,3.60
2019-02-26T05:16:51.887Z,3.40
2019-02-26T05:19:24.290Z,3.30
2019-02-26T05:21:55.974Z,3.20
2019-02-26T05:24:26.335Z,3.10
2019-02-26T05:26:56.659Z,2.90
2019-02-26T05:29:26.771Z,2.80
2019-02-26T05:31:58.872Z,2.80
2019-02-26T05:34:28.784Z,2.70
2019-02-26T05:36:59.757Z,2.70
2019-02-26T05:39:34.360Z,2.70
2019-02-26T05:42:14.109Z,2.70
2019-02-26T05:44:44.294Z,2.70
2019-02-26T05:47:16.714Z,2.60
2019-02-26T05:49:46.343Z,2.70
2019-02-26T05:52:16.484Z,2.70
2019-02-26T05:54:46.629Z,2.70
2019-02-26T05:57:26.076Z,2.70
2019-02-26T05:59:48.689Z,2.60
2019-02-26T06:02:21.131Z,2.70
2019-02-26T06:04:50.683Z,2.70
2019-02-26T06:07:24.070Z,2.80
2019-02-26T06:09:54.226Z,2.90
2019-02-26T06:12:24.557Z,2.90
2019-02-26T06:14:57.554Z,3.00
2019-02-26T06:17:26.631Z,3.10
2019-02-26T06:20:07.435Z,3.10
2019-02-26T06:22:36.445Z,3.00
2019-02-26T06:25:12.434Z,3.00
2019-02-26T06:27:38.577Z,3.00
2019-02-26T06:30:12.314Z,3.00
2019-02-26T06:32:44.367Z,3.00
2019-02-26T06:35:16.529Z,3.00
2019-02-26T06:37:46.765Z,3.20
2019-02-26T06:40:16.983Z,3.30
2019-02-26T06:42:47.108Z,3.30
2019-02-26T06:45:17.271Z,3.40
2019-02-26T06:47:48.412Z,3.70
2019-02-26T06:50:19.330Z,4.30
2019-02-26T06:52:50.726Z,4.90
2019-02-26T06:55:21.043Z,5.40
2019-02-26T06:57:52.797Z,5.90
2019-02-26T07:00:25.320Z,6.10
2019-02-26T07:02:54.903Z,6.20
2019-02-26T07:05:25.051Z,6.10
2019-02-26T07:07:57.045Z,5.70
2019-02-26T07:10:30.776Z,5.50
2019-02-26T07:12:58.959Z,5.30
2019-02-26T07:15:29.469Z,5.20
2019-02-26T07:18:02.456Z,5.50
2019-02-26T07:20:34.141Z,6.10
2019-02-26T07:23:03.946Z,6.60
2019-02-26T07:25:37.040Z,7.50
2019-02-26T07:28:07.146Z,7.60
2019-02-26T07:30:38.012Z,7.30
2019-02-26T07:33:10.366Z,7.60
2019-02-26T07:35:41.015Z,8.00
2019-02-26T07:38:11.164Z,8.50
2019-02-26T07:40:41.372Z,9.20
2019-02-26T07:43:12.743Z,10.50
2019-02-26T07:45:43.392Z,10.90
2019-02-26T07:48:16.439Z,11.20
2019-02-26T07:50:46.338Z,11.30
2019-02-26T07:53:19.694Z,11.40
2019-02-26T07:55:49.186Z,11.50
2019-02-26T07:58:19.384Z,11.70
2019-02-26T08:00:52.006Z,12.10
2019-02-26T08:03:23.759Z,12.80
2019-02-26T08:05:53.295Z,12.80
2019-02-26T08:08:23.457Z,12.80
2019-02-26T08:10:53.632Z,12.30
2019-02-26T08:13:25.843Z,12.00
2019-02-26T08:15:57.678Z,12.00
2019-02-26T08:18:27.673Z,12.10
2019-02-26T08:20:59.934Z,11.80
2019-02-26T08:23:29.796Z,11.50
2019-02-26T08:26:02.144Z,11.70
2019-02-26T08:28:31.794Z,12.20
2019-02-26T08:31:01.935Z,12.40
2019-02-26T08:33:32.108Z,12.50
2019-02-26T08:36:02.223Z,12.70
2019-02-26T08:38:33.416Z,12.60
2019-02-26T08:41:03.608Z,12.20
2019-02-26T08:43:33.755Z,12.50
2019-02-26T08:46:03.987Z,12.50
2019-02-26T08:48:34.243Z,13.10
2019-02-26T08:51:06.169Z,13.90
2019-02-26T08:53:36.252Z,14.40
2019-02-26T08:56:08.388Z,14.60
2019-02-26T08:58:38.359Z,14.30
2019-02-26T09:01:08.504Z,13.90
2019-02-26T09:03:40.892Z,14.10
2019-02-26T09:06:13.507Z,13.90
2019-02-26T09:08:43.147Z,14.10
2019-02-26T09:11:14.101Z,14.50
2019-02-26T09:13:45.464Z,14.70
2019-02-26T09:16:21.796Z,15.20
2019-02-26T09:18:50.570Z,15.40
2019-02-26T09:21:22.786Z,14.90
2019-02-26T09:23:56.802Z,14.30
2019-02-26T09:26:25.455Z,14.00
2019-02-26T09:28:57.179Z,14.30
2019-02-26T09:31:27.438Z,14.40
2019-02-26T09:33:57.583Z,14.20
2019-02-26T09:36:29.321Z,14.20
2019-02-26T09:38:59.692Z,14.50
2019-02-26T09:41:29.878Z,15.30
2019-02-26T09:44:01.908Z,15.50
2019-02-26T09:46:35.802Z,15.60
2019-02-26T09:49:05.088Z,16.40
2019-02-26T09:51:37.617Z,17.20
2019-02-26T09:54:10.314Z,18.00
2019-02-26T09:56:40.428Z,18.10
2019-02-26T09:59:13.032Z,18.20
2019-02-26T10:01:42.906Z,18.80
2019-02-26T10:04:13.143Z,18.10
2019-02-26T10:06:45.013Z,18.10
2019-02-26T10:09:16.218Z,18.60
2019-02-26T10:11:49.158Z,19.30
2019-02-26T10:14:18.963Z,19.50
2019-02-26T10:16:51.536Z,19.50
2019-02-26T10:19:21.076Z,20.10
2019-02-26T10:21:51.223Z,20.30
2019-02-26T10:24:25.207Z,20.90
2019-02-26T10:26:53.429Z,20.90
2019-02-26T10:29:23.641Z,22.00
2019-02-26T10:31:56.100Z,22.50
2019-02-26T10:34:30.165Z,23.00
2019-02-26T10:36:57.584Z,23.20
2019-02-26T10:39:28.342Z,23.90
2019-02-26T10:42:01.932Z,23.80
2019-02-26T10:44:30.407Z,23.70
2019-02-26T10:47:03.049Z,24.60
2019-02-26T10:49:32.486Z,24.50
2019-02-26T10:52:02.648Z,24.80
2019-02-26T10:54:37.488Z,24.90
2019-02-26T10:57:07.429Z,25.20
2019-02-26T10:59:36.543Z,24.50
2019-02-26T11:02:06.992Z,24.50
2019-02-26T11:04:41.115Z,23.90
2019-02-26T11:07:11.485Z,24.30
2019-02-26T11:09:41.039Z,24.70
2019-02-26T11:12:11.205Z,24.70
2019-02-26T11:14:41.938Z,24.10
2019-02-26T11:17:13.177Z,23.80
2019-02-26T11:19:43.503Z,24.20
2019-02-26T11:22:17.735Z,24.00
2019-02-26T11:24:48.550Z,24.80
2019-02-26T11:27:18.973Z,25.10
2019-02-26T11:29:49.133Z,25.50
2019-02-26T11:32:19.296Z,25.10
2019-02-26T11:34:50.854Z,25.10
2019-02-26T11:37:22.611Z,25.20
2019-02-26T11:39:55.000Z,25.70
2019-02-26T11:42:26.191Z,25.30
2019-02-26T11:44:56.955Z,25.90
2019-02-26T11:47:27.228Z,24.70
2019-02-26T11:49:59.519Z,25.00
2019-02-26T11:52:29.259Z,25.10
2019-02-26T11:55:03.242Z,25.70
2019-02-26T11:57:34.882Z,25.80
2019-02-26T12:00:06.706Z,25.60
2019-02-26T12:02:38.723Z,25.50
2019-02-26T12:05:10.687Z,25.60
2019-02-26T12:07:40.620Z,26.10
2019-02-26T12:10:14.526Z,26.30
2019-02-26T12:12:43.683Z,26.30
2019-02-26T12:15:15.238Z,25.50
2019-02-26T12:17:49.344Z,24.60
2019-02-26T12:20:19.558Z,25.10
2019-02-26T12:22:52.323Z,24.80
2019-02-26T12:25:23.649Z,24.90
2019-02-26T12:27:53.832Z,25.10
2019-02-26T12:30:24.064Z,25.00
2019-02-26T12:32:55.123Z,24.70
2019-02-26T12:35:25.475Z,23.90
2019-02-26T12:37:58.809Z,23.90
2019-02-26T12:40:27.495Z,23.90
2019-02-26T12:42:57.707Z,24.10
2019-02-26T12:45:28.593Z,24.00
2019-02-26T12:47:59.784Z,24.40
2019-02-26T12:50:32.990Z,24.40
2019-02-26T12:53:01.795Z,24.30
2019-02-26T12:55:35.126Z,24.20
2019-02-26T12:58:03.880Z,24.30
2019-02-26T13:00:35.003Z,24.40
2019-02-26T13:03:08.385Z,24.70
2019-02-26T13:05:39.237Z,24.70
2019-02-26T13:08:12.132Z,24.00
2019-02-26T13:10:42.613Z,23.60
2019-02-26T13:13:13.400Z,23.60
2019-02-26T13:15:43.625Z,23.90
2019-02-26T13:18:13.780Z,24.00
2019-02-26T13:20:44.019Z,24.10
2019-02-26T13:25:46.126Z,24.00
2019-02-26T13:28:16.280Z,24.20
2019-02-26T13:30:46.468Z,24.00
2019-02-26T13:33:21.233Z,23.60
2019-02-26T13:35:52.460Z,23.30
2019-02-26T13:38:24.770Z,22.90
2019-02-26T13:40:58.787Z,23.00
2019-02-26T13:43:25.316Z,23.20
2019-02-26T13:45:55.471Z,23.30
2019-02-26T13:48:25.664Z,23.00
2019-02-26T13:50:56.054Z,22.90
2019-02-26T13:53:26.256Z,23.20
2019-02-26T13:55:56.399Z,23.00
2019-02-26T13:58:26.583Z,23.00
2019-02-26T14:00:56.887Z,23.20
2019-02-26T14:03:27.114Z,23.10
2019-02-26T14:05:57.367Z,22.50
2019-02-26T14:08:27.528Z,22.00
2019-02-26T14:10:57.700Z,21.80
2019-02-26T14:13:27.867Z,21.60
2019-02-26T14:15:58.128Z,21.00
2019-02-26T14:18:28.359Z,20.70
2019-02-26T14:20:58.596Z,20.60
2019-02-26T14:23:34.740Z,20.50
2019-02-26T14:26:00.911Z,20.50
2019-02-26T14:28:31.128Z,20.40
2019-02-26T14:31:02.680Z,20.30
2019-02-26T14:33:32.922Z,20.10
2019-02-26T14:36:03.101Z,20.00
2019-02-26T14:38:33.581Z,19.80
2019-02-26T14:41:03.816Z,19.70
2019-02-26T14:43:33.985Z,19.60
2019-02-26T14:46:04.157Z,19.60
2019-02-26T14:48:34.319Z,19.50
2019-02-26T14:51:04.507Z,19.30
2019-02-26T14:53:34.691Z,19.30
2019-02-26T14:56:05.151Z,19.20
2019-02-26T14:58:35.324Z,19.20
2019-02-26T15:01:05.978Z,19.10
2019-02-26T15:03:36.137Z,19.10
2019-02-26T15:06:06.344Z,19.00
2019-02-26T15:08:36.556Z,18.90
2019-02-26T15:11:06.752Z,18.90
2019-02-26T15:13:36.914Z,18.80
2019-02-26T15:16:07.125Z,18.70
2019-02-26T15:18:37.431Z,18.70
2019-02-26T15:21:07.705Z,18.70
2019-02-26T15:23:38.896Z,18.70
2019-02-26T15:26:09.094Z,18.60
2019-02-26T15:28:39.395Z,18.60
2019-02-26T15:31:10.584Z,18.60
2019-02-26T15:33:40.782Z,18.50
2019-02-26T15:36:11.931Z,18.50
2019-02-26T15:38:42.106Z,18.30
2019-02-26T15:41:12.289Z,18.20
2019-02-26T15:43:43.458Z,18.10
2019-02-26T15:46:13.663Z,18.00
2019-02-26T15:48:44.800Z,17.90
2019-02-26T15:51:19.851Z,17.80
2019-02-26T15:53:46.969Z,17.70
2019-02-26T15:56:17.162Z,17.60
2019-02-26T15:58:47.323Z,17.60
2019-02-26T16:01:17.540Z,17.50
2019-02-26T16:03:47.715Z,17.30
2019-02-26T16:06:18.077Z,17.20
2019-02-26T16:08:48.273Z,17.10
2019-02-26T16:11:18.460Z,17.00
2019-02-26T16:13:48.684Z,16.90
2019-02-26T16:16:18.892Z,16.80
2019-02-26T16:18:49.033Z,16.70
2019-02-26T16:21:19.426Z,16.60
2019-02-26T16:23:49.658Z,16.50
2019-02-26T16:26:19.997Z,16.40
2019-02-26T16:28:51.206Z,16.30
2019-02-26T16:31:21.367Z,16.20
2019-02-26T16:33:51.554Z,16.10
2019-02-26T16:36:22.000Z,15.90
2019-02-26T16:38:52.204Z,15.80
2019-02-26T16:41:22.390Z,15.70
2019-02-26T16:43:52.640Z,15.60
2019-02-26T16:46:23.841Z,15.50
2019-02-26T16:48:54.137Z,15.50
2019-02-26T16:51:24.515Z,15.40
2019-02-26T16:53:54.758Z,15.20
2019-02-26T16:56:24.922Z,15.10
2019-02-26T16:58:55.344Z,15.00
2019-02-26T17:01:25.545Z,14.80
2019-02-26T17:03:56.767Z,14.70
2019-02-26T17:06:26.930Z,14.60
2019-02-26T17:08:57.124Z,14.40
2019-02-26T17:11:27.304Z,14.30
2019-02-26T17:13:57.599Z,14.10
2019-02-26T17:16:31.309Z,13.90
2019-02-26T17:18:59.757Z,13.80
2019-02-26T17:21:30.791Z,13.60
2019-02-26T17:24:01.456Z,13.50
2019-02-26T17:26:33.352Z,13.40
2019-02-26T17:29:03.655Z,13.20
2019-02-26T17:31:33.821Z,13.00
2019-02-26T17:34:05.440Z,12.90
2019-02-26T17:36:35.992Z,12.80
2019-02-26T17:39:07.208Z,12.70
2019-02-26T17:41:37.762Z,12.50
2019-02-26T17:44:08.165Z,12.40
2019-02-26T17:46:39.315Z,12.30
2019-02-26T17:49:09.511Z,12.10
2019-02-26T17:51:39.684Z,11.90
2019-02-26T17:54:09.913Z,11.90
2019-02-26T17:56:40.105Z,11.80
2019-02-26T17:59:10.339Z,11.70
2019-02-26T18:01:40.521Z,11.60
2019-02-26T18:04:10.784Z,11.60
2019-02-26T18:06:40.947Z,11.50
2019-02-26T18:09:11.355Z,11.50
2019-02-26T18:11:41.542Z,11.30
2019-02-26T18:14:11.727Z,11.20
2019-02-26T18:16:41.912Z,11.00
2019-02-26T18:19:12.462Z,11.00
2019-02-26T18:21:44.003Z,10.90
2019-02-26T18:24:14.393Z,11.00
2019-02-26T18:26:44.673Z,10.90
2019-02-26T18:29:14.912Z,10.80
2019-02-26T18:31:46.179Z,10.80
2019-02-26T18:34:16.380Z,10.80
2019-02-26T18:36:46.625Z,10.80
2019-02-26T18:39:16.902Z,10.90
2019-02-26T18:41:50.666Z,10.90
2019-02-26T18:44:20.687Z,11.00
2019-02-26T18:46:51.097Z,11.00
2019-02-26T18:49:21.860Z,11.00
2019-02-26T18:51:52.632Z,10.90
2019-02-26T18:54:22.971Z,10.80
2019-02-26T18:56:53.926Z,10.80
2019-02-26T18:59:24.261Z,10.70
2019-02-26T19:01:54.414Z,10.70
2019-02-26T19:04:24.710Z,10.60
2019-02-26T19:06:59.459Z,10.60
2019-02-26T19:09:27.830Z,10.40
2019-02-26T19:11:58.417Z,10.40
2019-02-26T19:14:28.667Z,10.20
2019-02-26T19:16:58.868Z,10.00
2019-02-26T19:19:29.060Z,9.90
2019-02-26T19:21:59.331Z,9.80
2019-02-26T19:24:29.588Z,9.60
2019-02-26T19:26:59.803Z,9.60
2019-02-26T19:29:31.654Z,9.50
2019-02-26T19:32:02.017Z,9.40
2019-02-26T19:34:32.173Z,9.40
2019-02-26T19:37:02.361Z,9.30
2019-02-26T19:39:33.756Z,9.30
2019-02-26T19:42:04.485Z,9.50
2019-02-26T19:44:35.936Z,9.30
2019-02-26T19:47:06.643Z,9.10
2019-02-26T19:49:39.523Z,9.10
2019-02-26T19:52:08.759Z,9.00
2019-02-26T19:54:41.562Z,8.90
2019-02-26T19:57:12.262Z,8.80
2019-02-26T19:59:46.864Z,8.80
2019-02-26T20:02:14.534Z,8.70
2019-02-26T20:04:44.773Z,8.70
2019-02-26T20:07:14.972Z,8.60
2019-02-26T20:09:45.156Z,8.70
2019-02-26T20:12:15.351Z,8.60
2019-02-26T20:14:48.560Z,8.60
2019-02-26T20:17:17.563Z,8.40
2019-02-26T20:19:47.735Z,8.30
2019-02-26T20:22:17.937Z,8.30
2019-02-26T20:24:48.104Z,8.20
2019-02-26T20:27:21.589Z,8.10
2019-02-26T20:29:50.275Z,7.90
2019-02-26T20:32:20.446Z,7.90
2019-02-26T20:34:52.103Z,7.90
2019-02-26T20:37:24.391Z,7.90
2019-02-26T20:39:54.377Z,7.80
2019-02-26T20:42:26.786Z,7.80
2019-02-26T20:44:58.998Z,7.60
2019-02-26T20:47:31.184Z,7.60
2019-02-26T20:50:00.371Z,7.50
2019-02-26T20:52:32.698Z,7.40
2019-02-26T20:55:02.501Z,7.30
2019-02-26T20:57:37.380Z,7.20
2019-02-26T21:00:05.247Z,7.10
2019-02-26T21:02:37.267Z,7.10
2019-02-26T21:05:07.883Z,7.10
2019-02-26T21:07:38.506Z,7.00
2019-02-26T21:10:09.481Z,7.00
2019-02-26T21:12:39.809Z,6.90
2019-02-26T21:15:14.790Z,6.80
2019-02-26T21:17:45.055Z,6.70
2019-02-26T21:20:15.264Z,6.60
2019-02-26T21:22:45.487Z,6.50
2019-02-26T21:25:15.816Z,6.50
2019-02-26T21:27:46.086Z,6.50
2019-02-26T21:30:17.263Z,6.40
2019-02-26T21:32:47.479Z,6.40
2019-02-26T21:35:20.209Z,6.30
2019-02-26T21:37:49.543Z,6.20
2019-02-26T21:40:19.774Z,6.20
2019-02-26T21:42:49.967Z,6.20
2019-02-26T21:45:20.135Z,6.20
2019-02-26T21:47:50.500Z,6.20
2019-02-26T21:50:22.741Z,6.20
2019-02-26T21:52:59.992Z,6.20
2019-02-26T21:55:24.549Z,6.20
2019-02-26T21:57:55.339Z,6.30
2019-02-26T22:00:25.655Z,6.20
2019-02-26T22:02:55.865Z,6.20
2019-02-26T22:05:26.043Z,6.20
2019-02-26T22:07:56.236Z,6.00
2019-02-26T22:10:26.547Z,5.80
2019-02-26T22:12:57.305Z,5.60
2019-02-26T22:15:27.525Z,5.60
2019-02-26T22:17:58.183Z,5.50
2019-02-26T22:20:36.277Z,5.50
2019-02-26T22:23:01.163Z,5.60
2019-02-26T22:25:31.492Z,5.60
2019-02-26T22:28:01.660Z,5.60
2019-02-26T22:30:31.844Z,5.60
2019-02-26T22:33:02.014Z,5.60
2019-02-26T22:35:32.213Z,5.50
2019-02-26T22:38:02.380Z,5.40
2019-02-26T22:40:34.201Z,5.30
2019-02-26T22:43:04.479Z,5.20
2019-02-26T22:45:34.643Z,5.20
2019-02-26T22:48:04.822Z,5.20
2019-02-26T22:50:35.006Z,5.10
2019-02-26T22:53:05.251Z,5.10
2019-02-26T22:55:35.472Z,5.20
2019-02-26T22:58:05.662Z,5.00
2019-02-26T23:01:04.351Z,4.90
2019-02-26T23:03:36.440Z,4.80
2019-02-26T23:06:06.706Z,4.80
2019-02-26T23:08:37.063Z,4.90
2019-02-26T23:11:07.595Z,4.80
2019-02-26T23:13:37.972Z,4.80
2019-02-26T23:16:08.603Z,4.60
2019-02-26T23:18:38.949Z,4.60
2019-02-26T23:21:09.875Z,4.50
2019-02-26T23:23:40.302Z,4.70
2019-02-26T23:26:10.656Z,4.90
2019-02-26T23:28:40.890Z,4.90
2019-02-26T23:31:11.615Z,4.80
2019-02-26T23:33:41.752Z,4.70
2019-02-26T23:36:12.815Z,4.60
2019-02-26T23:38:44.180Z,4.50
2019-02-26T23:41:14.923Z,4.50
2019-02-26T23:43:45.377Z,4.40
2019-02-26T23:46:16.226Z,4.30
2019-02-26T23:48:46.367Z,4.20
2019-02-26T23:51:20.113Z,4.20
2019-02-26T23:53:48.359Z,4.10
2019-02-26T23:56:19.098Z,3.90
2019-02-26T23:58:50.959Z,3.80
